Time;durP1;ratioP1;P1;durP2;ratioP2;P2;SDS_P1;SDS_P2;PMS_P1;PMS_P2;Temp;Humidity;BMP_temperature;BMP_pressure;BME280_temperature;BME280_humidity;BME280_pressure;Samples;Min_cycle;Max_cycle;Signal;HPM_P1;HPM_P2
2021/06/23 00:03:42;;;;;;;1999.90;999.90;;;;;;;15.68;100.00;98454.05;3911226;74;43478;-23
2021/06/23 00:08:48;;;;;;;1999.90;999.90;;;;;;;15.69;100.00;98445.38;3899840;75;44027;-22
2021/06/23 00:13:54;;;;;;;1999.90;999.90;;;;;;;15.68;100.00;98439.11;3885317;75;44057;-23
2021/06/23 00:19:00;;;;;;;1999.90;999.90;;;;;;;15.67;100.00;98448.29;3889594;75;44564;-23
2021/06/23 00:24:08;;;;;;;1999.90;999.90;;;;;;;15.64;100.00;98463.61;3903922;75;43247;-22
2021/06/23 00:29:14;;;;;;;1999.90;999.90;;;;;;;15.67;100.00;98469.16;3900290;75;43694;-22
2021/06/23 00:34:23;;;;;;;1999.90;999.90;;;;;;;15.56;100.00;98456.95;3891915;74;44042;-23
2021/06/23 00:39:29;;;;;;;1999.90;999.90;;;;;;;15.51;100.00;98465.67;3896452;75;43072;-22
2021/06/23 00:44:37;;;;;;;1999.90;999.90;;;;;;;15.50;100.00;98469.92;3908553;75;44519;-22
2021/06/23 00:49:45;;;;;;;1999.90;999.90;;;;;;;15.31;100.00;98443.73;3933440;74;43989;-22
2021/06/23 00:55:20;;;;;;;1999.90;999.90;;;;;;;15.27;100.00;98479.59;3937778;74;26435;-23
2021/06/23 01:00:25;;;;;;;1999.90;999.90;;;;;;;15.31;100.00;98483.59;3944518;74;43112;-23
2021/06/23 01:05:35;;;;;;;1999.90;999.90;;;;;;;15.29;100.00;98494.64;3932647;73;26525;-23
2021/06/23 01:10:45;;;;;;;1999.90;999.90;;;;;;;15.28;100.00;98487.53;3933537;74;27134;-23
2021/06/23 01:15:54;;;;;;;1999.90;999.90;;;;;;;15.28;100.00;98485.34;3933067;74;42818;-23
2021/06/23 01:21:00;;;;;;;1999.90;999.90;;;;;;;15.24;100.00;98492.50;3932120;74;44072;-23
2021/06/23 01:26:06;;;;;;;1999.90;999.90;;;;;;;15.22;100.00;98492.37;3926964;74;43705;-23
2021/06/23 01:36:30;;;;;;;1999.90;999.90;;;;;;;15.08;100.00;98469.14;4002925;73;27158;-20
2021/06/23 01:41:37;;;;;;;1999.90;999.90;;;;;;;15.03;100.00;98482.41;3939237;73;43660;-24
2021/06/23 01:46:43;;;;;;;1999.90;999.90;;;;;;;14.98;100.00;98497.08;3929348;75;44006;-22
2021/06/23 01:51:51;;;;;;;1999.90;999.90;;;;;;;15.00;100.00;98511.80;3932373;75;26420;-23
2021/06/23 01:56:57;;;;;;;1999.90;999.90;;;;;;;15.05;100.00;98504.78;3921236;75;43725;-24
2021/06/23 02:02:06;;;;;;;1999.90;999.90;;;;;;;14.97;100.00;98482.33;3889402;75;43738;-24
2021/06/23 02:07:22;;;;;;;1999.90;999.90;;;;;;;15.00;100.00;98494.99;3922647;75;26370;-24
2021/06/23 02:12:38;;;;;;;1999.90;999.90;;;;;;;14.99;100.00;98502.84;3920537;73;43991;-23
2021/06/23 02:17:47;;;;;;;1999.90;999.90;;;;;;;14.95;100.00;98502.34;3938770;75;43136;-23
2021/06/23 02:22:58;;;;;;;1999.90;999.90;;;;;;;14.98;100.00;98511.14;3921714;75;26360;-24
2021/06/23 02:28:07;;;;;;;1999.90;999.90;;;;;;;14.98;100.00;98513.36;3918681;75;26669;-24
2021/06/23 02:33:14;;;;;;;1999.90;999.90;;;;;;;14.96;100.00;98511.34;3925525;73;43342;-24
2021/06/23 02:38:24;;;;;;;1999.90;999.90;;;;;;;14.99;100.00;98510.97;3903802;75;26367;-23
2021/06/23 02:43:33;;;;;;;1999.90;999.90;;;;;;;15.00;100.00;98499.06;3888182;73;43673;-24
2021/06/23 02:48:42;;;;;;;1999.90;999.90;;;;;;;14.88;100.00;98505.98;3884832;75;26418;-24
2021/06/23 02:53:52;;;;;;;1999.90;999.90;;;;;;;14.81;100.00;98508.63;3898881;74;26414;-24
2021/06/23 02:59:01;;;;;;;1999.90;999.90;;;;;;;14.89;100.00;98509.89;3898340;75;44071;-24
2021/06/23 03:04:08;;;;;;;1999.90;999.90;;;;;;;14.91;100.00;98509.19;3914213;75;43706;-23
2021/06/23 03:09:16;;;;;;;1999.90;999.90;;;;;;;14.86;100.00;98520.27;3895837;75;26722;-24
2021/06/23 03:14:36;;;;;;;1999.90;999.90;;;;;;;14.92;100.00;98528.52;3893002;74;26376;-24
2021/06/23 03:19:43;;;;;;;1999.90;999.90;;;;;;;15.00;100.00;98530.27;3910159;75;44383;-23
2021/06/23 03:24:50;;;;;;;1999.90;999.90;;;;;;;15.03;100.00;98529.06;3902839;75;43467;-23
2021/06/23 03:29:58;;;;;;;1999.90;999.90;;;;;;;15.07;100.00;98532.57;3895808;75;43693;-24
2021/06/23 03:35:06;;;;;;;1999.90;999.90;;;;;;;15.10;100.00;98537.63;3884308;75;43352;-23
2021/06/23 03:40:13;;;;;;;1999.90;999.90;;;;;;;15.15;100.00;98544.34;3891271;74;43709;-24
2021/06/23 03:45:20;;;;;;;1999.90;999.90;;;;;;;15.18;100.00;98548.05;3923535;75;43448;-23
2021/06/23 03:50:29;;;;;;;1999.90;999.90;;;;;;;15.22;100.00;98546.13;3897730;74;43293;-24
2021/06/23 04:00:50;;;;;;;1999.90;999.90;;;;;;;15.40;100.00;98527.26;4013837;73;27250;-21
2021/06/23 04:05:58;;;;;;;1999.90;999.90;;;;;;;15.34;100.00;98523.43;3953741;73;26424;-22
2021/06/23 04:11:05;;;;;;;1999.90;999.90;;;;;;;15.31;100.00;98532.44;3970101;73;42997;-21
2021/06/23 04:16:13;;;;;;;1999.90;999.90;;;;;;;15.33;100.00;98536.67;3961936;73;42725;-22
2021/06/23 04:21:21;;;;;;;1999.90;999.90;;;;;;;15.31;100.00;98527.88;3933228;73;44229;-22
2021/06/23 04:26:28;;;;;;;1999.90;999.90;;;;;;;15.35;100.00;98531.88;3937581;73;43996;-22
2021/06/23 04:31:36;;;;;;;1999.90;999.90;;;;;;;15.35;100.00;98523.73;3967743;73;43066;-22
2021/06/23 04:36:43;;;;;;;1999.90;999.90;;;;;;;15.31;100.00;98506.16;3958217;73;43690;-23
2021/06/23 04:41:49;;;;;;;1999.90;999.90;;;;;;;15.30;100.00;98507.19;3967931;73;44160;-23
2021/06/23 04:46:56;;;;;;;1999.90;999.90;;;;;;;15.37;100.00;98533.06;3961805;73;44575;-22
2021/06/23 04:52:05;;;;;;;1999.90;999.90;;;;;;;15.53;100.00;98519.25;3964317;73;26371;-23
2021/06/23 04:57:12;;;;;;;1999.90;999.90;;;;;;;15.63;100.00;98532.53;3970354;73;44141;-23
2021/06/23 05:02:19;;;;;;;1999.90;999.90;;;;;;;15.49;100.00;98549.19;3873363;76;44010;-23
2021/06/23 05:07:25;;;;;;;1999.90;999.90;;;;;;;15.56;100.00;98557.42;3876051;76;43364;-23
2021/06/23 05:12:31;;;;;;;1999.90;999.90;;;;;;;15.58;100.00;98559.44;3883060;76;44057;-23
2021/06/23 05:17:39;;;;;;;1999.90;999.90;;;;;;;15.59;100.00;98571.95;3868650;76;44045;-23
2021/06/23 05:22:46;;;;;;;1999.90;999.90;;;;;;;15.53;100.00;98576.80;3868708;76;43725;-23
2021/06/23 05:27:52;;;;;;;1999.90;999.90;;;;;;;15.57;100.00;98586.27;3845960;76;44715;-23
2021/06/23 05:32:59;;;;;;;1999.90;999.90;;;;;;;15.55;100.00;98585.60;3916455;75;43338;-23
2021/06/23 05:38:05;;;;;;;1999.90;999.90;;;;;;;15.47;100.00;98587.04;3909432;75;43733;-23
2021/06/23 05:43:11;;;;;;;1999.90;999.90;;;;;;;15.41;100.00;98582.71;3901116;75;43382;-23
2021/06/23 05:48:17;;;;;;;1999.90;999.90;;;;;;;15.36;100.00;98593.28;3861943;75;43371;-23
2021/06/23 05:58:36;;;;;;;1999.90;999.90;;;;;;;15.29;100.00;98599.67;4002617;72;27236;-20
2021/06/23 06:03:42;;;;;;;1999.90;999.90;;;;;;;15.23;100.00;98609.38;3919460;75;44035;-22
2021/06/23 06:08:49;;;;;;;1999.90;999.90;;;;;;;15.21;100.00;98604.67;3913930;75;43697;-22
2021/06/23 06:13:55;;;;;;;1999.90;999.90;;;;;;;15.22;100.00;98602.30;3939440;75;43338;-23
2021/06/23 06:19:01;;;;;;;1999.90;999.90;;;;;;;15.18;100.00;98600.97;3924206;75;43690;-23
2021/06/23 06:24:08;;;;;;;1999.90;999.90;;;;;;;15.23;100.00;98602.09;3927620;75;44011;-23
2021/06/23 06:29:14;;;;;;;1999.90;999.90;;;;;;;15.12;100.00;98594.91;3924558;73;42943;-23
2021/06/23 06:34:20;;;;;;;1999.90;999.90;;;;;;;15.15;100.00;98600.84;3927088;75;44703;-23
2021/06/23 06:39:26;;;;;;;1999.90;999.90;;;;;;;14.98;100.00;98600.17;3935642;75;44083;-23
2021/06/23 06:44:32;;;;;;;1999.90;999.90;;;;;;;14.91;100.00;98608.70;3921154;75;42905;-23
2021/06/23 06:49:38;;;;;;;1999.90;999.90;;;;;;;14.83;100.00;98612.86;3924405;75;43491;-22
2021/06/23 06:54:45;;;;;;;1999.90;999.90;;;;;;;14.86;100.00;98626.89;3921803;73;43157;-22
2021/06/23 06:59:51;;;;;;;1999.90;999.90;;;;;;;14.73;100.00;98637.02;3942371;73;43253;-21
2021/06/23 07:04:57;;;;;;;1999.90;999.90;;;;;;;14.70;100.00;98633.31;3936788;74;44809;-21
2021/06/23 07:10:04;;;;;;;1999.90;999.90;;;;;;;14.81;100.00;98625.26;3936024;74;43355;-21
2021/06/23 07:15:12;;;;;;;1999.90;999.90;;;;;;;14.91;100.00;98627.69;3931201;74;43395;-21
2021/06/23 07:20:18;;;;;;;1999.90;999.90;;;;;;;14.87;100.00;98620.44;3934019;74;43701;-21
2021/06/23 07:25:25;;;;;;;1999.90;999.90;;;;;;;14.99;100.00;98628.98;3923272;74;44120;-21
2021/06/23 07:30:34;;;;;;;1999.90;999.90;;;;;;;15.13;100.00;98635.95;3927523;74;44136;-21
2021/06/23 07:41:06;;;;;;;1999.90;999.90;;;;;;;15.14;100.00;98667.48;3919708;74;44108;-22
2021/06/23 07:46:12;;;;;;;1999.90;999.90;;;;;;;15.30;100.00;98684.98;3919034;74;43113;-21
2021/06/23 07:51:26;;;;;;;1999.90;999.90;;;;;;;15.32;100.00;98692.43;3921805;73;43371;-21
2021/06/23 07:56:34;;;;;;;1999.90;999.90;;;;;;;15.21;100.00;98703.73;3909886;74;43487;-21
2021/06/23 08:02:20;;;;;;;1999.90;999.90;;;;;;;15.16;100.00;98712.44;3881628;75;42962;-22
2021/06/23 08:12:28;;;;;;;1999.90;999.90;;;;;;;15.10;100.00;98695.02;3911641;74;44473;-22
2021/06/23 08:17:34;;;;;;;1999.90;999.90;;;;;;;15.05;100.00;98696.07;3908489;75;44061;-24
2021/06/23 08:22:40;;;;;;;1999.90;999.90;;;;;;;15.13;100.00;98699.72;3895485;75;43671;-22
2021/06/23 08:27:47;;;;;;;1999.90;999.90;;;;;;;15.29;100.00;98701.46;3892050;75;43387;-22
2021/06/23 08:32:55;;;;;;;1999.90;999.90;;;;;;;15.23;100.00;98709.80;3887281;75;43011;-20
2021/06/23 08:38:01;;;;;;;1999.90;999.90;;;;;;;15.09;100.00;98711.47;3905037;74;44130;-20
2021/06/23 08:43:07;;;;;;;1999.90;999.90;;;;;;;15.01;100.00;98720.52;3894774;75;44881;-20
2021/06/23 08:48:13;;;;;;;1999.90;999.90;;;;;;;15.05;100.00;98726.44;3906306;75;43325;-21
2021/06/23 08:53:20;;;;;;;1999.90;999.90;;;;;;;15.20;100.00;98727.83;3887546;75;44162;-21
2021/06/23 08:58:26;;;;;;;1999.90;999.90;;;;;;;15.25;100.00;98734.89;3907297;75;43385;-21
2021/06/23 09:04:03;;;;;;;1999.90;999.90;;;;;;;15.43;100.00;98732.36;3903992;75;44042;-21
2021/06/23 09:09:18;;;;;;;1999.90;999.90;;;;;;;15.50;100.00;98723.80;3903133;74;44062;-22
2021/06/23 09:14:26;;;;;;;1999.90;999.90;;;;;;;15.55;100.00;98732.23;3908270;75;43194;-22
2021/06/23 09:19:34;;;;;;;1999.90;999.90;;;;;;;15.59;100.00;98738.97;3914674;75;43362;-22
2021/06/23 09:24:42;;;;;;;1999.90;999.90;;;;;;;15.68;100.00;98722.94;3910050;75;43317;-22
2021/06/23 09:35:02;;;;;;;1999.90;999.90;;;;;;;15.70;100.00;98712.70;3965810;73;27214;-21
2021/06/23 09:40:16;;;;;;;1999.90;999.90;;;;;;;15.78;100.00;98721.80;3916539;75;43647;-21
2021/06/23 09:45:23;;;;;;;1999.90;999.90;;;;;;;15.82;100.00;98724.45;3920139;74;44180;-22
2021/06/23 09:50:33;;;;;;;1999.90;999.90;;;;;;;15.80;100.00;98726.54;3923845;75;43308;-21
2021/06/23 09:55:41;;;;;;;1999.90;999.90;;;;;;;15.88;100.00;98726.47;3907470;75;43662;-21
2021/06/23 10:01:02;;;;;;;1999.90;999.90;;;;;;;16.01;100.00;98722.57;3901962;75;43681;-22
2021/06/23 10:06:25;;;;;;;1999.90;999.90;;;;;;;16.14;100.00;98726.50;3889034;75;43203;-21
2021/06/23 10:11:32;;;;;;;1999.90;999.90;;;;;;;15.98;100.00;98716.14;3923080;75;44453;-22
2021/06/23 10:16:39;;;;;;;1999.90;999.90;;;;;;;16.15;100.00;98724.11;3917420;74;44226;-22
2021/06/23 10:21:46;;;;;;;1999.90;999.90;;;;;;;16.35;100.00;98726.21;3920049;74;44031;-20
2021/06/23 10:26:54;;;;;;;1999.90;999.90;;;;;;;16.49;100.00;98739.77;3925526;75;43651;-20
2021/06/23 10:32:01;;;;;;;1999.90;999.90;;;;;;;16.76;100.00;98743.28;3902929;75;43416;-21
2021/06/23 10:37:08;;;;;;;1999.90;999.90;;;;;;;16.91;100.00;98739.16;3874752;76;44026;-21
2021/06/23 10:42:15;;;;;;;1999.90;999.90;;;;;;;17.06;100.00;98744.55;3879399;76;44105;-21
2021/06/23 10:47:33;;;;;;;1999.90;999.90;;;;;;;17.33;100.00;98744.27;3875616;74;44065;-21
2021/06/23 10:52:42;;;;;;;1999.90;999.90;;;;;;;17.51;100.00;98746.49;3875817;76;43135;-19
2021/06/23 10:57:51;;;;;;;1999.90;999.90;;;;;;;17.68;100.00;98745.66;3875531;76;43690;-20
2021/06/23 11:03:07;;;;;;;1999.90;999.90;;;;;;;17.68;100.00;98747.03;3878858;76;43388;-20
2021/06/23 11:08:47;;;;;;;1999.90;999.90;;;;;;;17.80;100.00;98750.05;3877473;76;44442;-20
2021/06/23 11:13:54;;;;;;;1999.90;999.90;;;;;;;17.90;100.00;98734.68;3876199;76;44014;-20
2021/06/23 11:19:09;;;;;;;1999.90;999.90;;;;;;;18.24;100.00;98743.89;3868035;74;43690;-20
2021/06/23 11:24:17;;;;;;;1999.90;999.90;;;;;;;18.50;100.00;98752.41;3873209;76;43359;-20
2021/06/23 11:29:42;;;;;;;1999.90;999.90;;;;;;;18.71;100.00;98745.42;3874715;75;43702;-20
2021/06/23 11:34:57;;;;;;;1999.90;999.90;;;;;;;18.56;100.00;98739.29;3922729;75;44492;-20
2021/06/23 11:40:20;;;;;;;1999.90;999.90;;;;;;;18.66;100.00;98743.00;3948579;75;43168;-20
2021/06/23 11:45:27;;;;;;;1999.90;999.90;;;;;;;18.91;100.00;98739.16;3930914;75;43402;-20
2021/06/23 11:50:35;;;;;;;1999.90;999.90;;;;;;;19.15;100.00;98736.90;3949512;74;42964;-21
2021/06/23 11:55:42;;;;;;;1999.90;999.90;;;;;;;19.17;100.00;98738.91;3927840;75;44054;-21
2021/06/23 12:00:48;;;;;;;1999.90;999.90;;;;;;;19.16;100.00;98738.08;3905929;75;43326;-21
2021/06/23 12:05:56;;;;;;;1999.90;999.90;;;;;;;19.11;100.00;98736.48;3919561;75;43721;-20
2021/06/23 12:11:04;;;;;;;1999.90;999.90;;;;;;;19.06;100.00;98738.48;3947343;75;43620;-21
2021/06/23 12:16:10;;;;;;;1999.90;999.90;;;;;;;18.96;100.00;98745.39;3940747;75;44078;-20
2021/06/23 12:21:17;;;;;;;1999.90;999.90;;;;;;;19.00;100.00;98744.76;3936167;74;43970;-20
2021/06/23 12:26:23;;;;;;;1999.90;999.90;;;;;;;19.18;100.00;98753.70;3932031;75;43709;-20
2021/06/23 12:31:30;;;;;;;1999.90;999.90;;;;;;;19.37;100.00;98756.67;3958273;75;43306;-21
2021/06/23 12:36:37;;;;;;;1999.90;999.90;;;;;;;19.76;100.00;98759.58;3906123;75;42979;-21
2021/06/23 12:41:43;;;;;;;1999.90;999.90;;;;;;;20.01;100.00;98746.08;3900914;75;44389;-21
2021/06/23 12:46:50;;;;;;;1999.90;999.90;;;;;;;20.28;100.00;98742.75;3894423;74;44197;-21
2021/06/23 12:51:57;;;;;;;1999.90;999.90;;;;;;;20.38;100.00;98738.70;3900595;75;43773;-21
2021/06/23 12:57:05;;;;;;;1999.90;999.90;;;;;;;20.59;100.00;98746.59;3897960;74;44501;-21
2021/06/23 13:02:13;;;;;;;1999.90;999.90;;;;;;;20.61;98.74;98745.84;3901496;75;43694;-21
2021/06/23 13:12:34;;;;;;;1999.90;999.90;;;;;;;20.61;99.12;98742.25;4003325;72;27159;-19
2021/06/23 13:17:41;;;;;;;1999.90;999.90;;;;;;;20.95;100.00;98742.92;3917702;75;43296;-21
2021/06/23 13:22:48;;;;;;;1999.90;999.90;;;;;;;20.96;99.88;98745.14;3923982;75;43670;-21
2021/06/23 13:27:53;;;;;;;1999.90;999.90;;;;;;;;;;3928455;73;44394;-21
2021/06/23 13:32:59;;;;;;;1999.90;999.90;;;;;;;21.34;97.83;98748.34;3927658;75;44017;-21
2021/06/23 13:38:05;;;;;;;1999.90;999.90;;;;;;;21.15;97.13;98757.02;3917063;75;44676;-21
2021/06/23 13:43:11;;;;;;;1999.90;999.90;;;;;;;21.27;97.02;98743.43;3920677;75;44048;-21
2021/06/23 13:48:18;;;;;;;1999.90;999.90;;;;;;;21.24;95.46;98740.61;3939510;73;44058;-21
2021/06/23 13:53:26;;;;;;;1999.90;999.90;;;;;;;21.88;94.67;98714.95;3930028;75;43092;-21
2021/06/23 13:58:33;;;;;;;1999.90;999.90;;;;;;;21.77;94.79;98710.53;3910482;75;43705;-21
2021/06/23 14:03:40;;;;;;;1999.90;999.90;;;;;;;21.90;92.21;98702.67;3909551;73;44018;-21
2021/06/23 14:08:46;;;;;;;1999.90;999.90;;;;;;;22.93;84.81;98701.42;3929048;74;43053;-21
2021/06/23 14:13:52;;;;;;;1999.90;999.90;;;;;;;23.23;80.44;98700.56;3895985;75;43037;-21
2021/06/23 14:18:58;;;;;;;1999.90;999.90;;;;;;;22.42;86.51;98695.41;3902789;74;43131;-22
2021/06/23 14:24:05;;;;;;;1999.90;999.90;;;;;;;23.17;81.40;98695.97;3905674;75;43301;-21
2021/06/23 14:29:16;;;;;;;1999.90;999.90;;;;;;;23.42;77.29;98683.95;3892599;75;44038;-21
2021/06/23 14:34:26;;;;;;;1999.90;999.90;;;;;;;23.00;80.96;98683.45;3891009;74;43176;-21
2021/06/23 14:44:39;;;;;;;1999.90;999.90;;;;;;;23.33;80.37;98699.13;3996226;72;30642;-18
2021/06/23 14:49:46;;;;;;;1999.90;999.90;;;;;;;22.93;82.66;98706.09;3918268;75;43873;-23
2021/06/23 14:54:52;;;;;;;1999.90;999.90;;;;;;;22.86;81.98;98705.37;3926308;75;43327;-22
2021/06/23 15:00:00;;;;;;;1999.90;999.90;;;;;;;22.35;82.94;98689.16;3934249;74;43467;-22
2021/06/23 15:05:08;;;;;;;1999.90;999.90;;;;;;;22.15;87.53;98693.00;3922867;74;44695;-22
2021/06/23 15:10:17;;;;;;;1999.90;999.90;;;;;;;21.77;89.23;98707.78;3926904;74;43368;-21
2021/06/23 15:15:24;;;;;;;1999.90;999.90;;;;;;;21.74;90.45;98695.89;3913251;75;43318;-22
2021/06/23 15:20:34;;;;;;;1999.90;999.90;;;;;;;21.76;89.88;98690.17;3929220;75;43682;-21
2021/06/23 15:25:41;;;;;;;1999.90;999.90;;;;;;;22.24;89.07;98681.70;3897514;75;43750;-22
2021/06/23 15:30:50;;;;;;;1999.90;999.90;;;;;;;22.29;87.50;98681.31;3915828;74;44465;-22
2021/06/23 15:35:57;;;;;;;1999.90;999.90;;;;;;;22.54;89.01;98683.64;3914347;74;43355;-21
2021/06/23 15:41:04;;;;;;;1999.90;999.90;;;;;;;22.45;88.99;98687.27;3924419;75;43692;-22
2021/06/23 15:46:12;;;;;;;1999.90;999.90;;;;;;;22.27;88.83;98688.93;3903307;75;44038;-22
2021/06/23 15:51:19;;;;;;;1999.90;999.90;;;;;;;22.16;89.89;98691.94;3897621;75;44055;-22
2021/06/23 15:56:25;;;;;;;1999.90;999.90;;;;;;;21.77;92.76;98680.36;3900062;75;43515;-22
2021/06/23 16:01:31;;;;;;;1999.90;999.90;;;;;;;21.62;93.31;98668.92;3908991;74;43308;-21
2021/06/23 16:06:39;;;;;;;1999.90;999.90;;;;;;;21.50;93.01;98664.16;3908813;75;44066;-21
2021/06/23 16:11:46;;;;;;;1999.90;999.90;;;;;;;21.43;93.90;98672.98;3892805;74;43423;-22
2021/06/23 16:16:52;;;;;;;1999.90;999.90;;;;;;;21.21;95.59;98665.19;3894396;74;43365;-21
2021/06/23 16:21:59;;;;;;;1999.90;999.90;;;;;;;21.37;95.06;98654.17;3896480;75;43503;-21
2021/06/23 16:27:12;;;;;;;1999.90;999.90;;;;;;;21.62;92.24;98656.06;3890754;75;43678;-22
2021/06/23 16:32:19;;;;;;;1999.90;999.90;;;;;;;21.50;94.27;98657.30;3895280;75;43350;-22
2021/06/23 16:37:26;;;;;;;1999.90;999.90;;;;;;;21.13;96.25;98655.03;3897826;75;43657;-21
2021/06/23 16:42:32;;;;;;;1999.90;999.90;;;;;;;21.10;96.79;98657.70;3891073;74;43591;-22
2021/06/23 16:47:38;;;;;;;1999.90;999.90;;;;;;;21.01;97.74;98650.80;3894210;75;44017;-21
2021/06/23 16:52:45;;;;;;;1999.90;999.90;;;;;;;21.11;97.50;98647.02;3902347;75;43967;-21
2021/06/23 16:57:52;;;;;;;1999.90;999.90;;;;;;;21.08;96.47;98648.86;3901265;75;44009;-21
2021/06/23 17:02:58;;;;;;;1999.90;999.90;;;;;;;21.12;97.75;98650.08;3898890;75;44151;-23
2021/06/23 17:08:05;;;;;;;1999.90;999.90;;;;;;;21.27;98.00;98645.64;3894658;75;44034;-22
2021/06/23 17:13:12;;;;;;;1999.90;999.90;;;;;;;21.13;99.12;98645.45;3895510;74;44145;-22
2021/06/23 17:18:18;;;;;;;1999.90;999.90;;;;;;;20.97;100.00;98653.70;3899573;75;43435;-22
2021/06/23 17:23:25;;;;;;;1999.90;999.90;;;;;;;20.82;100.00;98657.60;3894753;75;44058;-23
2021/06/23 17:28:31;;;;;;;1999.90;999.90;;;;;;;20.73;100.00;98652.89;3895707;75;43098;-22
2021/06/23 17:33:37;;;;;;;1999.90;999.90;;;;;;;20.68;100.00;98638.19;3891641;75;44045;-22
2021/06/23 17:38:43;;;;;;;1999.90;999.90;;;;;;;20.58;100.00;98636.79;3889798;74;43578;-23
2021/06/23 17:43:50;;;;;;;1999.90;999.90;;;;;;;20.47;100.00;98629.28;3900858;75;44176;-23
2021/06/23 17:48:57;;;;;;;1999.90;999.90;;;;;;;20.45;100.00;98626.78;3904532;74;43376;-22
2021/06/23 17:54:04;;;;;;;1999.90;999.90;;;;;;;20.41;100.00;98623.31;3902269;75;43027;-22
2021/06/23 17:59:10;;;;;;;1999.90;999.90;;;;;;;20.35;100.00;98627.77;3892251;74;43454;-21
2021/06/23 18:04:16;;;;;;;1999.90;999.90;;;;;;;20.31;100.00;98633.39;3906385;75;42835;-22
2021/06/23 18:09:23;;;;;;;1999.90;999.90;;;;;;;20.21;100.00;98627.56;3885467;74;43728;-22
2021/06/23 18:14:30;;;;;;;1999.90;999.90;;;;;;;20.06;100.00;98634.15;3893864;75;44054;-22
2021/06/23 18:19:37;;;;;;;1999.90;999.90;;;;;;;19.86;100.00;98638.33;3878552;74;44492;-22
2021/06/23 18:24:43;;;;;;;1999.90;999.90;;;;;;;19.89;100.00;98632.44;3890080;75;44170;-22
2021/06/23 18:29:49;;;;;;;1999.90;999.90;;;;;;;19.78;100.00;98627.62;3906054;74;44550;-22
2021/06/23 18:34:57;;;;;;;1999.90;999.90;;;;;;;19.67;100.00;98628.61;3897133;75;43757;-22
2021/06/23 18:40:04;;;;;;;1999.90;999.90;;;;;;;19.61;100.00;98629.99;3896791;75;43999;-21
2021/06/23 18:45:13;;;;;;;1999.90;999.90;;;;;;;19.46;100.00;98635.17;3895785;75;44535;-22
2021/06/23 18:55:33;;;;;;;1999.90;999.90;;;;;;;19.33;100.00;98644.25;3971611;73;28085;-22
2021/06/23 19:00:41;;;;;;;1999.90;999.90;;;;;;;19.21;100.00;98641.31;3889132;73;44102;-23
2021/06/23 19:05:47;;;;;;;1999.90;999.90;;;;;;;19.03;100.00;98625.58;3900469;73;43795;-23
2021/06/23 19:10:54;;;;;;;1999.90;999.90;;;;;;;18.95;100.00;98625.80;3867973;73;43991;-22
2021/06/23 19:16:01;;;;;;;1999.90;999.90;;;;;;;18.87;100.00;98630.08;3900392;73;44055;-23
2021/06/23 19:21:08;;;;;;;1999.90;999.90;;;;;;;18.86;100.00;98635.23;3886324;73;44071;-22
2021/06/23 19:26:16;;;;;;;1999.90;999.90;;;;;;;18.74;100.00;98619.48;3892567;73;43294;-22
2021/06/23 19:31:25;;;;;;;1999.90;999.90;;;;;;;18.71;100.00;98609.48;3875784;73;44120;-22
2021/06/23 19:41:45;;;;;;;1999.90;999.90;;;;;;;18.62;100.00;98621.97;3978167;73;27259;-19
2021/06/23 19:46:51;;;;;;;1999.90;999.90;;;;;;;18.56;100.00;98625.55;3931903;75;44067;-22
2021/06/23 19:51:57;;;;;;;1999.90;999.90;;;;;;;18.51;100.00;98620.41;3923717;75;44046;-21
2021/06/23 19:57:05;;;;;;;1999.90;999.90;;;;;;;18.51;100.00;98620.41;3932652;74;43673;-21
2021/06/23 20:07:24;;;;;;;1999.90;999.90;;;;;;;18.37;100.00;98595.83;4013907;73;27262;-19
2021/06/23 20:12:30;;;;;;;1999.90;999.90;;;;;;;18.24;100.00;98589.81;3943259;75;43388;-21
2021/06/23 20:17:37;;;;;;;1999.90;999.90;;;;;;;18.20;100.00;98593.16;3936937;75;42940;-21
2021/06/23 20:22:45;;;;;;;1999.90;999.90;;;;;;;18.20;100.00;98605.44;3932786;75;44126;-21
2021/06/23 20:27:53;;;;;;;1999.90;999.90;;;;;;;18.14;100.00;98603.86;3913010;73;43697;-21
2021/06/23 20:33:00;;;;;;;1999.90;999.90;;;;;;;18.10;100.00;98619.48;3908375;75;43388;-21
2021/06/23 20:38:06;;;;;;;1999.90;999.90;;;;;;;18.13;100.00;98619.05;3922697;75;44010;-21
2021/06/23 20:43:13;;;;;;;1999.90;999.90;;;;;;;18.06;100.00;98617.66;3919335;75;44057;-21
2021/06/23 20:48:19;;;;;;;1999.90;999.90;;;;;;;18.03;100.00;98604.47;3923124;75;43373;-21
2021/06/23 20:53:25;;;;;;;1999.90;999.90;;;;;;;17.98;100.00;98586.51;3909391;75;43300;-21
2021/06/23 20:58:32;;;;;;;1999.90;999.90;;;;;;;17.93;100.00;98578.09;3924632;73;44074;-20
2021/06/23 21:03:38;;;;;;;1999.90;999.90;;;;;;;17.94;100.00;98568.84;3928228;75;43347;-20
2021/06/23 21:08:47;;;;;;;1999.90;999.90;;;;;;;17.90;100.00;98560.78;3906713;75;43588;-18
2021/06/23 21:13:54;;;;;;;1999.90;999.90;;;;;;;17.90;100.00;98592.95;3917772;75;43399;-20
2021/06/23 21:19:00;;;;;;;1999.90;999.90;;;;;;;17.90;100.00;98604.38;3906949;75;43734;-21
2021/06/23 21:24:09;;;;;;;1999.90;999.90;;;;;;;17.90;100.00;98623.47;3912621;74;44081;-21
2021/06/23 21:29:15;;;;;;;1999.90;999.90;;;;;;;17.89;100.00;98627.23;3906512;75;44048;-20
2021/06/23 21:39:34;;;;;;;1999.90;999.90;;;;;;;17.94;100.00;98641.93;4013439;73;27220;-18
2021/06/23 21:44:40;;;;;;;1999.90;999.90;;;;;;;17.90;100.00;98648.00;3965876;73;44036;-22
2021/06/23 21:49:47;;;;;;;1999.90;999.90;;;;;;;17.83;100.00;98667.87;3958628;75;44097;-22
2021/06/23 21:55:01;;;;;;;1999.90;999.90;;;;;;;17.84;100.00;98668.19;3959940;73;44025;-22
2021/06/23 22:00:14;;;;;;;1999.90;999.90;;;;;;;17.82;100.00;98649.00;3966818;73;42951;-22
2021/06/23 22:05:21;;;;;;;1999.90;999.90;;;;;;;17.75;100.00;98643.52;3959253;73;43462;-22
2021/06/23 22:10:27;;;;;;;1999.90;999.90;;;;;;;17.79;100.00;98639.36;3962917;73;43741;-22
2021/06/23 22:15:35;;;;;;;1999.90;999.90;;;;;;;17.76;100.00;98630.22;3968686;73;43664;-22
2021/06/23 22:20:42;;;;;;;1999.90;999.90;;;;;;;17.75;100.00;98631.26;3959589;74;44073;-21
2021/06/23 22:25:53;;;;;;;1999.90;999.90;;;;;;;17.69;100.00;98623.38;3963747;73;44165;-22
2021/06/23 22:31:00;;;;;;;1999.90;999.90;;;;;;;17.71;100.00;98610.39;3963454;73;43262;-22
2021/06/23 22:36:10;;;;;;;1999.90;999.90;;;;;;;17.72;100.00;98601.69;3962364;73;43449;-22
2021/06/23 22:41:22;;;;;;;1999.90;999.90;;;;;;;17.65;100.00;98613.09;3940547;74;44082;-22
2021/06/23 22:46:35;;;;;;;1999.90;999.90;;;;;;;17.63;100.00;98606.48;3941705;74;43483;-23
2021/06/23 22:51:42;;;;;;;1999.90;999.90;;;;;;;17.61;100.00;98597.67;3938255;74;43208;-22
2021/06/23 22:56:54;;;;;;;1999.90;999.90;;;;;;;17.60;100.00;98601.94;3942606;74;43720;-22
2021/06/23 23:01:57;;;;;;;1999.90;999.90;;;;;;;17.55;100.00;98593.02;3933057;74;43462;-22
2021/06/23 23:07:04;;;;;;;1999.90;999.90;;;;;;;17.54;100.00;98594.92;3942057;73;44125;-22
2021/06/23 23:12:13;;;;;;;1999.90;999.90;;;;;;;17.49;100.00;98601.48;3934290;74;43730;-22
2021/06/23 23:17:19;;;;;;;1999.90;999.90;;;;;;;17.51;100.00;98614.91;3936891;74;43318;-22
2021/06/23 23:22:25;;;;;;;1999.90;999.90;;;;;;;17.48;100.00;98606.60;3934706;74;43081;-22
2021/06/23 23:27:33;;;;;;;1999.90;999.90;;;;;;;17.48;100.00;98608.50;3940693;74;42919;-22
2021/06/23 23:32:41;;;;;;;1999.90;999.90;;;;;;;17.37;100.00;98610.75;3935350;74;44165;-22
2021/06/23 23:37:48;;;;;;;1999.90;999.90;;;;;;;17.39;100.00;98616.84;3953929;73;44195;-22
2021/06/23 23:42:55;;;;;;;1999.90;999.90;;;;;;;17.36;100.00;98613.66;3968415;73;43985;-22